Portada
METAR-TAF:

METAR-TAF

Aeroports :

Pontoise, França

latitud: 49-05-48N, longitud: 002-02-27E, altitud: 99 m

Observació

L'informe es va fer fa 34 minuts, a les 14:00 UTC
Vent 11 kt del Oest/Nord-Oest
Temperatura 6°C
Humitat 70%
Pressió 1008 hPa
Visibilitat 10 km o més

METAR: LFPT 261400Z AUTO 30011KT 9999 FEW011/// ///TCU 06/01 Q1008

Hora: 15:34 (14:34 UTC)


TAF: manca

Observacions i pronòstics meteorològics de més de 4000 aeroports (METAR i TAF).

Les estacions disponibles són els punts grocs i vermells al mapa.

Posi el ratolí al punt desitjat per veure el nom de l'estació.

Feu clic per veure les observacions i els pronòstics meteorològics.

Per canviar el mapa: feu clic els botons verds amb una creu de color negre per apropar; al botó verd amb un guió per allunyar la imatge; o en les fletxes verdes per a mapes adjacents.


METAR-TAF: